sensor_id;sensor_type;location;lat;lon;timestamp;P1;durP1;ratioP1;P2;durP2;ratioP2
67456;SDS011;54319;52.038;4.640;2022-07-11T00:02:19;6.70;;;2.97;;
67456;SDS011;54319;52.038;4.640;2022-07-11T00:04:46;10.53;;;3.13;;
67456;SDS011;54319;52.038;4.640;2022-07-11T00:07:13;10.98;;;3.33;;
67456;SDS011;54319;52.038;4.640;2022-07-11T00:09:41;7.95;;;2.47;;
67456;SDS011;54319;52.038;4.640;2022-07-11T00:12:08;5.32;;;2.40;;
67456;SDS011;54319;52.038;4.640;2022-07-11T00:14:38;8.50;;;3.28;;
67456;SDS011;54319;52.038;4.640;2022-07-11T00:17:05;7.93;;;2.40;;
67456;SDS011;54319;52.038;4.640;2022-07-11T00:19:33;6.40;;;2.70;;
67456;SDS011;54319;52.038;4.640;2022-07-11T00:22:00;6.38;;;2.80;;
67456;SDS011;54319;52.038;4.640;2022-07-11T00:24:26;5.95;;;2.78;;
67456;SDS011;54319;52.038;4.640;2022-07-11T00:26:54;10.20;;;3.53;;
67456;SDS011;54319;52.038;4.640;2022-07-11T00:29:21;5.00;;;2.95;;
67456;SDS011;54319;52.038;4.640;2022-07-11T00:31:49;5.07;;;2.80;;
67456;SDS011;54319;52.038;4.640;2022-07-11T00:34:16;8.65;;;2.85;;
67456;SDS011;54319;52.038;4.640;2022-07-11T00:36:43;11.47;;;3.70;;
67456;SDS011;54319;52.038;4.640;2022-07-11T00:41:37;9.52;;;3.78;;
67456;SDS011;54319;52.038;4.640;2022-07-11T00:44:05;9.75;;;4.22;;
67456;SDS011;54319;52.038;4.640;2022-07-11T00:46:32;11.93;;;3.95;;
67456;SDS011;54319;52.038;4.640;2022-07-11T00:49:00;12.82;;;5.15;;
67456;SDS011;54319;52.038;4.640;2022-07-11T00:51:28;9.82;;;5.00;;
67456;SDS011;54319;52.038;4.640;2022-07-11T00:53:57;9.68;;;4.82;;
67456;SDS011;54319;52.038;4.640;2022-07-11T00:56:25;7.30;;;4.40;;
67456;SDS011;54319;52.038;4.640;2022-07-11T00:58:55;13.23;;;5.45;;
67456;SDS011;54319;52.038;4.640;2022-07-11T01:01:23;13.70;;;5.32;;
67456;SDS011;54319;52.038;4.640;2022-07-11T01:03:50;10.43;;;5.72;;
67456;SDS011;54319;52.038;4.640;2022-07-11T01:06:19;11.82;;;6.07;;
67456;SDS011;54319;52.038;4.640;2022-07-11T01:08:46;9.65;;;5.60;;
67456;SDS011;54319;52.038;4.640;2022-07-11T01:11:13;10.98;;;6.25;;
67456;SDS011;54319;52.038;4.640;2022-07-11T01:13:42;17.15;;;6.80;;
67456;SDS011;54319;52.038;4.640;2022-07-11T01:16:10;10.88;;;6.43;;
67456;SDS011;54319;52.038;4.640;2022-07-11T01:18:39;12.00;;;7.15;;
67456;SDS011;54319;52.038;4.640;2022-07-11T01:21:10;13.02;;;7.38;;
67456;SDS011;54319;52.038;4.640;2022-07-11T01:23:52;15.70;;;8.00;;
67456;SDS011;54319;52.038;4.640;2022-07-11T01:26:20;12.85;;;7.63;;
67456;SDS011;54319;52.038;4.640;2022-07-11T01:28:49;13.82;;;7.82;;
67456;SDS011;54319;52.038;4.640;2022-07-11T01:31:17;12.68;;;7.80;;
67456;SDS011;54319;52.038;4.640;2022-07-11T01:33:45;16.90;;;8.18;;
67456;SDS011;54319;52.038;4.640;2022-07-11T01:36:12;11.93;;;7.93;;
67456;SDS011;54319;52.038;4.640;2022-07-11T01:38:39;13.50;;;8.13;;
67456;SDS011;54319;52.038;4.640;2022-07-11T01:41:07;13.45;;;8.10;;
67456;SDS011;54319;52.038;4.640;2022-07-11T01:43:34;14.10;;;7.90;;
67456;SDS011;54319;52.038;4.640;2022-07-11T01:46:01;16.80;;;7.95;;
67456;SDS011;54319;52.038;4.640;2022-07-11T01:48:28;14.15;;;8.52;;
67456;SDS011;54319;52.038;4.640;2022-07-11T01:50:55;23.67;;;9.47;;
67456;SDS011;54319;52.038;4.640;2022-07-11T01:53:22;14.98;;;8.90;;
67456;SDS011;54319;52.038;4.640;2022-07-11T01:55:49;14.60;;;9.45;;
67456;SDS011;54319;52.038;4.640;2022-07-11T02:00:44;18.15;;;8.98;;
67456;SDS011;54319;52.038;4.640;2022-07-11T02:03:11;15.70;;;8.88;;
67456;SDS011;54319;52.038;4.640;2022-07-11T02:05:38;14.48;;;9.45;;
67456;SDS011;54319;52.038;4.640;2022-07-11T02:10:40;15.13;;;8.70;;
67456;SDS011;54319;52.038;4.640;2022-07-11T02:13:10;18.90;;;10.20;;
67456;SDS011;54319;52.038;4.640;2022-07-11T02:15:39;14.63;;;9.70;;
67456;SDS011;54319;52.038;4.640;2022-07-11T02:18:07;16.08;;;9.23;;
67456;SDS011;54319;52.038;4.640;2022-07-11T02:20:34;18.15;;;9.02;;
67456;SDS011;54319;52.038;4.640;2022-07-11T02:23:01;15.18;;;9.25;;
67456;SDS011;54319;52.038;4.640;2022-07-11T02:27:57;17.70;;;9.07;;
67456;SDS011;54319;52.038;4.640;2022-07-11T02:32:52;12.93;;;7.53;;
67456;SDS011;54319;52.038;4.640;2022-07-11T02:35:19;7.90;;;4.80;;
67456;SDS011;54319;52.038;4.640;2022-07-11T02:40:13;8.25;;;6.07;;
67456;SDS011;54319;52.038;4.640;2022-07-11T02:42:41;14.27;;;6.80;;
67456;SDS011;54319;52.038;4.640;2022-07-11T02:45:08;10.75;;;7.70;;
67456;SDS011;54319;52.038;4.640;2022-07-11T02:47:36;14.50;;;7.55;;
67456;SDS011;54319;52.038;4.640;2022-07-11T02:50:06;13.80;;;8.15;;
67456;SDS011;54319;52.038;4.640;2022-07-11T02:52:34;14.63;;;7.35;;
67456;SDS011;54319;52.038;4.640;2022-07-11T02:55:01;10.65;;;7.03;;
67456;SDS011;54319;52.038;4.640;2022-07-11T02:57:28;9.82;;;6.65;;
67456;SDS011;54319;52.038;4.640;2022-07-11T02:59:55;14.20;;;7.00;;
67456;SDS011;54319;52.038;4.640;2022-07-11T03:02:22;11.00;;;6.70;;
67456;SDS011;54319;52.038;4.640;2022-07-11T03:04:50;11.77;;;6.53;;
67456;SDS011;54319;52.038;4.640;2022-07-11T03:07:19;8.85;;;6.20;;
67456;SDS011;54319;52.038;4.640;2022-07-11T03:09:45;9.77;;;6.70;;
67456;SDS011;54319;52.038;4.640;2022-07-11T03:12:12;10.32;;;6.70;;
67456;SDS011;54319;52.038;4.640;2022-07-11T03:14:39;10.37;;;6.80;;
67456;SDS011;54319;52.038;4.640;2022-07-11T03:17:06;9.55;;;6.13;;
67456;SDS011;54319;52.038;4.640;2022-07-11T03:19:33;10.80;;;6.10;;
67456;SDS011;54319;52.038;4.640;2022-07-11T03:22:00;9.13;;;5.70;;
67456;SDS011;54319;52.038;4.640;2022-07-11T03:24:28;7.68;;;5.22;;
67456;SDS011;54319;52.038;4.640;2022-07-11T03:26:55;7.57;;;5.10;;
67456;SDS011;54319;52.038;4.640;2022-07-11T03:29:21;7.18;;;4.95;;
67456;SDS011;54319;52.038;4.640;2022-07-11T03:31:49;6.35;;;5.25;;
67456;SDS011;54319;52.038;4.640;2022-07-11T03:34:16;8.95;;;5.40;;
67456;SDS011;54319;52.038;4.640;2022-07-11T03:36:42;8.37;;;4.93;;
67456;SDS011;54319;52.038;4.640;2022-07-11T03:39:11;8.00;;;4.93;;
67456;SDS011;54319;52.038;4.640;2022-07-11T03:41:39;8.68;;;5.03;;
67456;SDS011;54319;52.038;4.640;2022-07-11T03:44:06;7.25;;;4.53;;
67456;SDS011;54319;52.038;4.640;2022-07-11T03:46:34;11.52;;;4.85;;
67456;SDS011;54319;52.038;4.640;2022-07-11T03:49:01;6.60;;;4.40;;
67456;SDS011;54319;52.038;4.640;2022-07-11T03:51:28;5.22;;;3.92;;
67456;SDS011;54319;52.038;4.640;2022-07-11T03:53:55;6.35;;;4.05;;
67456;SDS011;54319;52.038;4.640;2022-07-11T03:56:22;6.47;;;4.00;;
67456;SDS011;54319;52.038;4.640;2022-07-11T03:58:51;4.38;;;3.55;;
67456;SDS011;54319;52.038;4.640;2022-07-11T04:01:17;5.38;;;3.42;;
67456;SDS011;54319;52.038;4.640;2022-07-11T04:03:46;4.90;;;3.10;;
67456;SDS011;54319;52.038;4.640;2022-07-11T04:11:06;6.57;;;2.95;;
67456;SDS011;54319;52.038;4.640;2022-07-11T04:13:34;5.50;;;2.75;;
67456;SDS011;54319;52.038;4.640;2022-07-11T04:16:02;3.35;;;2.40;;
67456;SDS011;54319;52.038;4.640;2022-07-11T04:18:29;5.78;;;2.83;;
67456;SDS011;54319;52.038;4.640;2022-07-11T04:20:56;4.93;;;3.20;;
67456;SDS011;54319;52.038;4.640;2022-07-11T04:23:23;4.28;;;2.70;;
67456;SDS011;54319;52.038;4.640;2022-07-11T04:25:50;4.43;;;3.00;;
67456;SDS011;54319;52.038;4.640;2022-07-11T04:28:17;3.22;;;2.47;;
67456;SDS011;54319;52.038;4.640;2022-07-11T04:30:44;6.00;;;2.73;;
67456;SDS011;54319;52.038;4.640;2022-07-11T04:33:12;3.75;;;2.22;;
67456;SDS011;54319;52.038;4.640;2022-07-11T04:35:39;3.13;;;2.10;;
67456;SDS011;54319;52.038;4.640;2022-07-11T04:38:07;4.68;;;2.10;;
67456;SDS011;54319;52.038;4.640;2022-07-11T04:40:34;4.00;;;1.83;;
67456;SDS011;54319;52.038;4.640;2022-07-11T04:43:02;2.58;;;2.00;;
67456;SDS011;54319;52.038;4.640;2022-07-11T04:45:29;2.22;;;1.80;;
67456;SDS011;54319;52.038;4.640;2022-07-11T04:47:56;1.83;;;1.70;;
67456;SDS011;54319;52.038;4.640;2022-07-11T04:50:25;2.28;;;1.80;;
67456;SDS011;54319;52.038;4.640;2022-07-11T04:52:52;1.92;;;1.77;;
67456;SDS011;54319;52.038;4.640;2022-07-11T04:55:19;3.23;;;1.77;;
67456;SDS011;54319;52.038;4.640;2022-07-11T04:57:46;2.92;;;1.70;;
67456;SDS011;54319;52.038;4.640;2022-07-11T05:00:14;2.15;;;1.65;;
67456;SDS011;54319;52.038;4.640;2022-07-11T05:02:41;1.70;;;1.17;;
67456;SDS011;54319;52.038;4.640;2022-07-11T05:05:08;2.55;;;1.33;;
67456;SDS011;54319;52.038;4.640;2022-07-11T05:07:36;3.63;;;1.40;;
67456;SDS011;54319;52.038;4.640;2022-07-11T05:10:03;2.95;;;1.20;;
67456;SDS011;54319;52.038;4.640;2022-07-11T05:12:31;1.83;;;1.10;;
67456;SDS011;54319;52.038;4.640;2022-07-11T05:14:57;2.17;;;1.25;;
67456;SDS011;54319;52.038;4.640;2022-07-11T05:17:25;1.90;;;1.60;;
67456;SDS011;54319;52.038;4.640;2022-07-11T05:19:52;2.92;;;1.45;;
67456;SDS011;54319;52.038;4.640;2022-07-11T05:24:47;2.03;;;1.30;;
67456;SDS011;54319;52.038;4.640;2022-07-11T05:27:14;1.30;;;1.20;;
67456;SDS011;54319;52.038;4.640;2022-07-11T05:29:41;1.77;;;1.20;;
67456;SDS011;54319;52.038;4.640;2022-07-11T05:32:08;5.72;;;1.60;;
67456;SDS011;54319;52.038;4.640;2022-07-11T05:34:35;2.45;;;1.70;;
67456;SDS011;54319;52.038;4.640;2022-07-11T05:37:03;6.30;;;1.70;;
67456;SDS011;54319;52.038;4.640;2022-07-11T05:39:30;4.88;;;1.60;;
67456;SDS011;54319;52.038;4.640;2022-07-11T05:41:59;2.65;;;1.30;;
67456;SDS011;54319;52.038;4.640;2022-07-11T05:44:26;2.47;;;1.10;;
67456;SDS011;54319;52.038;4.640;2022-07-11T05:46:52;3.63;;;1.08;;
67456;SDS011;54319;52.038;4.640;2022-07-11T05:49:20;0.90;;;0.90;;
67456;SDS011;54319;52.038;4.640;2022-07-11T05:51:46;2.17;;;1.10;;
67456;SDS011;54319;52.038;4.640;2022-07-11T05:56:41;2.65;;;1.10;;
67456;SDS011;54319;52.038;4.640;2022-07-11T05:59:10;2.60;;;1.25;;
67456;SDS011;54319;52.038;4.640;2022-07-11T06:01:37;1.20;;;1.10;;
67456;SDS011;54319;52.038;4.640;2022-07-11T06:06:30;1.02;;;0.98;;
67456;SDS011;54319;52.038;4.640;2022-07-11T06:11:24;1.85;;;1.27;;
67456;SDS011;54319;52.038;4.640;2022-07-11T06:16:19;1.30;;;1.20;;
67456;SDS011;54319;52.038;4.640;2022-07-11T06:18:47;3.30;;;1.33;;
67456;SDS011;54319;52.038;4.640;2022-07-11T06:21:13;1.10;;;1.00;;
67456;SDS011;54319;52.038;4.640;2022-07-11T06:23:40;2.28;;;1.30;;
67456;SDS011;54319;52.038;4.640;2022-07-11T06:26:07;2.13;;;1.13;;
67456;SDS011;54319;52.038;4.640;2022-07-11T06:28:36;1.55;;;1.20;;
67456;SDS011;54319;52.038;4.640;2022-07-11T06:31:04;1.63;;;1.10;;
67456;SDS011;54319;52.038;4.640;2022-07-11T06:33:33;4.47;;;1.25;;
67456;SDS011;54319;52.038;4.640;2022-07-11T06:36:00;1.33;;;1.10;;
67456;SDS011;54319;52.038;4.640;2022-07-11T06:38:28;1.10;;;1.00;;
67456;SDS011;54319;52.038;4.640;2022-07-11T06:40:55;1.40;;;1.13;;
67456;SDS011;54319;52.038;4.640;2022-07-11T06:43:22;1.17;;;1.02;;
67456;SDS011;54319;52.038;4.640;2022-07-11T06:45:49;5.38;;;1.10;;
67456;SDS011;54319;52.038;4.640;2022-07-11T06:48:17;1.40;;;1.13;;
67456;SDS011;54319;52.038;4.640;2022-07-11T06:50:47;0.70;;;0.70;;
67456;SDS011;54319;52.038;4.640;2022-07-11T06:53:14;1.05;;;1.02;;
67456;SDS011;54319;52.038;4.640;2022-07-11T06:55:42;2.88;;;1.33;;
67456;SDS011;54319;52.038;4.640;2022-07-11T06:58:09;1.40;;;1.27;;
67456;SDS011;54319;52.038;4.640;2022-07-11T07:00:36;3.10;;;1.40;;
67456;SDS011;54319;52.038;4.640;2022-07-11T07:03:03;1.67;;;1.52;;
67456;SDS011;54319;52.038;4.640;2022-07-11T07:05:29;1.88;;;1.42;;
67456;SDS011;54319;52.038;4.640;2022-07-11T07:07:59;1.98;;;1.83;;
67456;SDS011;54319;52.038;4.640;2022-07-11T07:10:29;3.15;;;2.65;;
67456;SDS011;54319;52.038;4.640;2022-07-11T07:12:56;3.80;;;1.90;;
67456;SDS011;54319;52.038;4.640;2022-07-11T07:15:23;2.55;;;1.80;;
67456;SDS011;54319;52.038;4.640;2022-07-11T07:20:17;5.15;;;3.30;;
67456;SDS011;54319;52.038;4.640;2022-07-11T07:22:44;5.53;;;3.33;;
67456;SDS011;54319;52.038;4.640;2022-07-11T07:25:12;4.87;;;3.30;;
67456;SDS011;54319;52.038;4.640;2022-07-11T07:27:39;4.55;;;2.70;;
67456;SDS011;54319;52.038;4.640;2022-07-11T07:30:07;4.28;;;2.58;;
67456;SDS011;54319;52.038;4.640;2022-07-11T07:32:35;5.28;;;3.53;;
67456;SDS011;54319;52.038;4.640;2022-07-11T07:39:55;4.28;;;3.08;;
67456;SDS011;54319;52.038;4.640;2022-07-11T07:42:24;5.35;;;3.25;;
67456;SDS011;54319;52.038;4.640;2022-07-11T07:44:50;4.10;;;3.30;;
67456;SDS011;54319;52.038;4.640;2022-07-11T07:47:18;5.18;;;3.40;;
67456;SDS011;54319;52.038;4.640;2022-07-11T07:49:45;5.32;;;2.97;;
67456;SDS011;54319;52.038;4.640;2022-07-11T07:52:12;3.55;;;2.95;;
67456;SDS011;54319;52.038;4.640;2022-07-11T07:54:39;5.10;;;3.20;;
67456;SDS011;54319;52.038;4.640;2022-07-11T07:57:06;5.43;;;3.40;;
67456;SDS011;54319;52.038;4.640;2022-07-11T07:59:34;6.72;;;3.50;;
67456;SDS011;54319;52.038;4.640;2022-07-11T08:02:01;5.72;;;3.85;;
67456;SDS011;54319;52.038;4.640;2022-07-11T08:04:27;5.30;;;3.95;;
67456;SDS011;54319;52.038;4.640;2022-07-11T08:06:55;5.85;;;4.47;;
67456;SDS011;54319;52.038;4.640;2022-07-11T08:09:24;6.72;;;4.45;;
67456;SDS011;54319;52.038;4.640;2022-07-11T08:11:51;5.25;;;3.60;;
67456;SDS011;54319;52.038;4.640;2022-07-11T08:14:18;4.82;;;3.50;;
67456;SDS011;54319;52.038;4.640;2022-07-11T08:16:47;5.60;;;3.58;;
67456;SDS011;54319;52.038;4.640;2022-07-11T08:19:14;6.30;;;3.85;;
67456;SDS011;54319;52.038;4.640;2022-07-11T08:21:42;5.30;;;3.80;;
67456;SDS011;54319;52.038;4.640;2022-07-11T08:24:08;4.35;;;3.00;;
67456;SDS011;54319;52.038;4.640;2022-07-11T08:26:35;5.90;;;3.00;;
67456;SDS011;54319;52.038;4.640;2022-07-11T08:29:03;5.72;;;3.00;;
67456;SDS011;54319;52.038;4.640;2022-07-11T08:36:25;3.95;;;3.05;;
67456;SDS011;54319;52.038;4.640;2022-07-11T08:38:54;4.20;;;3.00;;
67456;SDS011;54319;52.038;4.640;2022-07-11T08:41:21;5.05;;;3.35;;
67456;SDS011;54319;52.038;4.640;2022-07-11T08:43:48;6.78;;;3.70;;
67456;SDS011;54319;52.038;4.640;2022-07-11T08:46:15;6.45;;;3.60;;
67456;SDS011;54319;52.038;4.640;2022-07-11T08:48:44;9.05;;;3.92;;
67456;SDS011;54319;52.038;4.640;2022-07-11T08:51:13;6.30;;;3.88;;
67456;SDS011;54319;52.038;4.640;2022-07-11T08:53:41;7.55;;;4.78;;
67456;SDS011;54319;52.038;4.640;2022-07-11T08:56:09;7.80;;;4.00;;
67456;SDS011;54319;52.038;4.640;2022-07-11T08:58:41;7.25;;;4.72;;
67456;SDS011;54319;52.038;4.640;2022-07-11T09:01:10;7.20;;;4.03;;
67456;SDS011;54319;52.038;4.640;2022-07-11T09:03:39;6.00;;;3.97;;
67456;SDS011;54319;52.038;4.640;2022-07-11T09:06:07;5.75;;;3.97;;
67456;SDS011;54319;52.038;4.640;2022-07-11T09:08:38;5.43;;;4.25;;
67456;SDS011;54319;52.038;4.640;2022-07-11T09:11:05;6.38;;;4.57;;
67456;SDS011;54319;52.038;4.640;2022-07-11T09:16:03;6.10;;;4.22;;
67456;SDS011;54319;52.038;4.640;2022-07-11T09:18:33;7.72;;;4.43;;
67456;SDS011;54319;52.038;4.640;2022-07-11T09:21:02;6.45;;;4.55;;
67456;SDS011;54319;52.038;4.640;2022-07-11T09:23:49;8.85;;;4.45;;
67456;SDS011;54319;52.038;4.640;2022-07-11T09:29:04;6.60;;;4.53;;
67456;SDS011;54319;52.038;4.640;2022-07-11T09:31:34;8.32;;;4.80;;
67456;SDS011;54319;52.038;4.640;2022-07-11T09:34:02;6.85;;;4.40;;
67456;SDS011;54319;52.038;4.640;2022-07-11T09:36:37;7.72;;;4.00;;
67456;SDS011;54319;52.038;4.640;2022-07-11T09:39:08;6.18;;;4.53;;
67456;SDS011;54319;52.038;4.640;2022-07-11T09:41:36;6.63;;;4.43;;
67456;SDS011;54319;52.038;4.640;2022-07-11T09:44:06;6.43;;;4.25;;
67456;SDS011;54319;52.038;4.640;2022-07-11T09:46:34;5.50;;;4.35;;
67456;SDS011;54319;52.038;4.640;2022-07-11T09:49:01;6.22;;;4.18;;
67456;SDS011;54319;52.038;4.640;2022-07-11T09:53:57;5.50;;;4.18;;
67456;SDS011;54319;52.038;4.640;2022-07-11T09:56:26;5.35;;;3.75;;
67456;SDS011;54319;52.038;4.640;2022-07-11T09:58:59;4.45;;;3.60;;
67456;SDS011;54319;52.038;4.640;2022-07-11T10:01:26;6.68;;;3.50;;
67456;SDS011;54319;52.038;4.640;2022-07-11T10:03:54;4.88;;;3.40;;
67456;SDS011;54319;52.038;4.640;2022-07-11T10:06:22;4.47;;;3.47;;
67456;SDS011;54319;52.038;4.640;2022-07-11T10:11:16;5.50;;;3.58;;
67456;SDS011;54319;52.038;4.640;2022-07-11T10:16:13;4.82;;;3.17;;
67456;SDS011;54319;52.038;4.640;2022-07-11T10:18:50;4.50;;;3.50;;
67456;SDS011;54319;52.038;4.640;2022-07-11T10:21:24;4.55;;;3.05;;
67456;SDS011;54319;52.038;4.640;2022-07-11T10:23:56;4.38;;;3.08;;
67456;SDS011;54319;52.038;4.640;2022-07-11T10:26:30;3.95;;;3.13;;
67456;SDS011;54319;52.038;4.640;2022-07-11T10:29:07;4.22;;;2.90;;
67456;SDS011;54319;52.038;4.640;2022-07-11T10:31:36;3.65;;;2.60;;
67456;SDS011;54319;52.038;4.640;2022-07-11T10:34:05;4.55;;;2.67;;
67456;SDS011;54319;52.038;4.640;2022-07-11T10:36:37;2.92;;;2.30;;
67456;SDS011;54319;52.038;4.640;2022-07-11T10:39:15;3.53;;;2.47;;
67456;SDS011;54319;52.038;4.640;2022-07-11T10:44:12;3.60;;;2.63;;
67456;SDS011;54319;52.038;4.640;2022-07-11T10:46:40;3.33;;;2.35;;
67456;SDS011;54319;52.038;4.640;2022-07-11T10:49:09;3.78;;;2.45;;
67456;SDS011;54319;52.038;4.640;2022-07-11T10:51:47;2.38;;;2.17;;
67456;SDS011;54319;52.038;4.640;2022-07-11T10:54:23;3.47;;;2.58;;
67456;SDS011;54319;52.038;4.640;2022-07-11T10:57:04;3.22;;;2.40;;
67456;SDS011;54319;52.038;4.640;2022-07-11T10:59:57;4.78;;;2.58;;
67456;SDS011;54319;52.038;4.640;2022-07-11T11:02:26;3.90;;;2.78;;
67456;SDS011;54319;52.038;4.640;2022-07-11T11:04:53;3.75;;;2.60;;
67456;SDS011;54319;52.038;4.640;2022-07-11T11:13:16;3.70;;;2.80;;
67456;SDS011;54319;52.038;4.640;2022-07-11T11:15:46;5.07;;;3.60;;
67456;SDS011;54319;52.038;4.640;2022-07-11T11:18:34;3.33;;;2.70;;
67456;SDS011;54319;52.038;4.640;2022-07-11T11:21:12;4.03;;;2.72;;
67456;SDS011;54319;52.038;4.640;2022-07-11T11:23:40;3.20;;;2.50;;
67456;SDS011;54319;52.038;4.640;2022-07-11T11:26:08;3.95;;;2.75;;
67456;SDS011;54319;52.038;4.640;2022-07-11T11:28:36;3.88;;;2.88;;
67456;SDS011;54319;52.038;4.640;2022-07-11T11:31:06;4.63;;;3.05;;
67456;SDS011;54319;52.038;4.640;2022-07-11T11:33:34;3.22;;;2.53;;
67456;SDS011;54319;52.038;4.640;2022-07-11T11:36:03;2.95;;;2.40;;
67456;SDS011;54319;52.038;4.640;2022-07-11T11:38:33;4.38;;;2.80;;
67456;SDS011;54319;52.038;4.640;2022-07-11T11:41:01;3.25;;;2.33;;
67456;SDS011;54319;52.038;4.640;2022-07-11T11:43:30;3.65;;;2.42;;
67456;SDS011;54319;52.038;4.640;2022-07-11T11:45:57;4.10;;;2.53;;
67456;SDS011;54319;52.038;4.640;2022-07-11T11:48:29;4.93;;;2.90;;
67456;SDS011;54319;52.038;4.640;2022-07-11T11:51:00;3.85;;;2.53;;
67456;SDS011;54319;52.038;4.640;2022-07-11T11:53:28;4.18;;;2.53;;
67456;SDS011;54319;52.038;4.640;2022-07-11T11:55:55;3.28;;;2.58;;
67456;SDS011;54319;52.038;4.640;2022-07-11T11:58:24;4.22;;;2.75;;
67456;SDS011;54319;52.038;4.640;2022-07-11T12:00:53;3.58;;;2.55;;
67456;SDS011;54319;52.038;4.640;2022-07-11T12:03:20;3.28;;;2.35;;
67456;SDS011;54319;52.038;4.640;2022-07-11T12:05:55;3.42;;;2.70;;
67456;SDS011;54319;52.038;4.640;2022-07-11T12:10:52;4.15;;;3.15;;
67456;SDS011;54319;52.038;4.640;2022-07-11T12:13:19;3.63;;;2.80;;
67456;SDS011;54319;52.038;4.640;2022-07-11T12:18:35;3.72;;;2.90;;
67456;SDS011;54319;52.038;4.640;2022-07-11T12:21:09;4.28;;;2.80;;
67456;SDS011;54319;52.038;4.640;2022-07-11T12:23:38;5.70;;;2.77;;
67456;SDS011;54319;52.038;4.640;2022-07-11T12:28:32;3.75;;;2.97;;
67456;SDS011;54319;52.038;4.640;2022-07-11T12:30:59;4.07;;;2.70;;
67456;SDS011;54319;52.038;4.640;2022-07-11T12:33:27;5.03;;;3.08;;
67456;SDS011;54319;52.038;4.640;2022-07-11T12:35:54;3.90;;;2.88;;
67456;SDS011;54319;52.038;4.640;2022-07-11T12:38:24;4.07;;;3.00;;
67456;SDS011;54319;52.038;4.640;2022-07-11T12:40:57;3.72;;;2.85;;
67456;SDS011;54319;52.038;4.640;2022-07-11T12:43:39;3.67;;;2.67;;
67456;SDS011;54319;52.038;4.640;2022-07-11T12:46:24;3.50;;;2.75;;
67456;SDS011;54319;52.038;4.640;2022-07-11T12:48:51;7.93;;;3.00;;
67456;SDS011;54319;52.038;4.640;2022-07-11T12:51:25;3.72;;;3.13;;
67456;SDS011;54319;52.038;4.640;2022-07-11T12:53:59;3.63;;;2.83;;
67456;SDS011;54319;52.038;4.640;2022-07-11T12:56:28;4.38;;;2.67;;
67456;SDS011;54319;52.038;4.640;2022-07-11T12:58:56;3.90;;;2.70;;
67456;SDS011;54319;52.038;4.640;2022-07-11T13:01:22;3.85;;;2.75;;
67456;SDS011;54319;52.038;4.640;2022-07-11T13:03:50;4.47;;;2.80;;
67456;SDS011;54319;52.038;4.640;2022-07-11T13:06:17;5.82;;;3.10;;
67456;SDS011;54319;52.038;4.640;2022-07-11T13:09:06;4.90;;;2.92;;
67456;SDS011;54319;52.038;4.640;2022-07-11T13:11:33;4.47;;;3.20;;
67456;SDS011;54319;52.038;4.640;2022-07-11T13:14:01;3.95;;;2.65;;
67456;SDS011;54319;52.038;4.640;2022-07-11T13:18:55;2.13;;;1.80;;
67456;SDS011;54319;52.038;4.640;2022-07-11T13:21:23;3.70;;;2.50;;
67456;SDS011;54319;52.038;4.640;2022-07-11T13:23:52;3.00;;;2.20;;
67456;SDS011;54319;52.038;4.640;2022-07-11T13:26:19;3.33;;;2.28;;
67456;SDS011;54319;52.038;4.640;2022-07-11T13:28:46;3.00;;;2.25;;
67456;SDS011;54319;52.038;4.640;2022-07-11T13:31:13;6.72;;;2.50;;
67456;SDS011;54319;52.038;4.640;2022-07-11T13:33:41;3.50;;;1.83;;
67456;SDS011;54319;52.038;4.640;2022-07-11T13:36:09;1.90;;;1.60;;
67456;SDS011;54319;52.038;4.640;2022-07-11T13:38:36;2.40;;;1.60;;
67456;SDS011;54319;52.038;4.640;2022-07-11T13:41:04;2.08;;;1.50;;
67456;SDS011;54319;52.038;4.640;2022-07-11T13:43:34;2.00;;;1.80;;
67456;SDS011;54319;52.038;4.640;2022-07-11T13:46:02;2.10;;;1.67;;
67456;SDS011;54319;52.038;4.640;2022-07-11T13:48:29;4.13;;;1.90;;
67456;SDS011;54319;52.038;4.640;2022-07-11T13:50:56;2.33;;;1.92;;
67456;SDS011;54319;52.038;4.640;2022-07-11T13:53:23;3.80;;;2.05;;
67456;SDS011;54319;52.038;4.640;2022-07-11T13:58:18;2.67;;;1.80;;
67456;SDS011;54319;52.038;4.640;2022-07-11T14:00:52;2.25;;;1.90;;
67456;SDS011;54319;52.038;4.640;2022-07-11T14:03:19;3.22;;;2.00;;
67456;SDS011;54319;52.038;4.640;2022-07-11T14:05:46;2.25;;;1.85;;
67456;SDS011;54319;52.038;4.640;2022-07-11T14:08:13;3.45;;;2.13;;
67456;SDS011;54319;52.038;4.640;2022-07-11T14:10:40;1.63;;;1.52;;
67456;SDS011;54319;52.038;4.640;2022-07-11T14:13:08;2.78;;;1.67;;
67456;SDS011;54319;52.038;4.640;2022-07-11T14:15:35;2.65;;;2.00;;
67456;SDS011;54319;52.038;4.640;2022-07-11T14:18:03;1.90;;;1.70;;
67456;SDS011;54319;52.038;4.640;2022-07-11T14:20:29;2.45;;;1.88;;
67456;SDS011;54319;52.038;4.640;2022-07-11T14:22:57;2.90;;;2.33;;
67456;SDS011;54319;52.038;4.640;2022-07-11T14:25:24;3.38;;;2.30;;
67456;SDS011;54319;52.038;4.640;2022-07-11T14:27:52;2.30;;;2.03;;
67456;SDS011;54319;52.038;4.640;2022-07-11T14:32:45;3.35;;;2.00;;
67456;SDS011;54319;52.038;4.640;2022-07-11T14:35:14;3.58;;;1.80;;
67456;SDS011;54319;52.038;4.640;2022-07-11T14:37:41;2.30;;;2.10;;
67456;SDS011;54319;52.038;4.640;2022-07-11T14:40:08;5.22;;;2.15;;
67456;SDS011;54319;52.038;4.640;2022-07-11T14:42:36;4.38;;;2.13;;
67456;SDS011;54319;52.038;4.640;2022-07-11T14:47:31;1.88;;;1.77;;
67456;SDS011;54319;52.038;4.640;2022-07-11T14:49:58;2.10;;;1.63;;
67456;SDS011;54319;52.038;4.640;2022-07-11T14:52:26;1.70;;;1.60;;
67456;SDS011;54319;52.038;4.640;2022-07-11T14:54:53;1.60;;;1.45;;
67456;SDS011;54319;52.038;4.640;2022-07-11T14:57:20;2.17;;;1.40;;
67456;SDS011;54319;52.038;4.640;2022-07-11T15:02:14;1.60;;;1.50;;
67456;SDS011;54319;52.038;4.640;2022-07-11T15:04:40;1.83;;;1.70;;
67456;SDS011;54319;52.038;4.640;2022-07-11T15:07:07;2.20;;;2.00;;
67456;SDS011;54319;52.038;4.640;2022-07-11T15:10:05;1.85;;;1.40;;
67456;SDS011;54319;52.038;4.640;2022-07-11T15:12:55;1.40;;;1.30;;
67456;SDS011;54319;52.038;4.640;2022-07-11T15:17:50;1.33;;;1.08;;
67456;SDS011;54319;52.038;4.640;2022-07-11T15:20:16;2.80;;;1.10;;
67456;SDS011;54319;52.038;4.640;2022-07-11T15:22:44;1.52;;;1.20;;
67456;SDS011;54319;52.038;4.640;2022-07-11T15:25:12;1.27;;;1.15;;
67456;SDS011;54319;52.038;4.640;2022-07-11T15:27:40;0.95;;;0.95;;
67456;SDS011;54319;52.038;4.640;2022-07-11T15:30:07;2.75;;;1.08;;
67456;SDS011;54319;52.038;4.640;2022-07-11T15:32:38;0.93;;;0.93;;
67456;SDS011;54319;52.038;4.640;2022-07-11T15:37:32;1.20;;;0.98;;
67456;SDS011;54319;52.038;4.640;2022-07-11T15:39:59;1.23;;;0.95;;
67456;SDS011;54319;52.038;4.640;2022-07-11T15:42:27;0.90;;;0.90;;
67456;SDS011;54319;52.038;4.640;2022-07-11T15:44:54;1.20;;;0.80;;
67456;SDS011;54319;52.038;4.640;2022-07-11T15:47:21;1.38;;;1.02;;
67456;SDS011;54319;52.038;4.640;2022-07-11T15:49:48;1.98;;;1.40;;
67456;SDS011;54319;52.038;4.640;2022-07-11T15:52:16;2.67;;;1.63;;
67456;SDS011;54319;52.038;4.640;2022-07-11T15:57:10;1.35;;;1.10;;
67456;SDS011;54319;52.038;4.640;2022-07-11T15:59:38;2.47;;;1.73;;
67456;SDS011;54319;52.038;4.640;2022-07-11T16:02:05;2.75;;;1.70;;
67456;SDS011;54319;52.038;4.640;2022-07-11T16:04:33;1.25;;;1.10;;
67456;SDS011;54319;52.038;4.640;2022-07-11T16:09:27;1.65;;;1.30;;
67456;SDS011;54319;52.038;4.640;2022-07-11T16:14:22;1.77;;;0.98;;
67456;SDS011;54319;52.038;4.640;2022-07-11T16:19:18;7.72;;;5.85;;
67456;SDS011;54319;52.038;4.640;2022-07-11T16:21:46;57.10;;;48.05;;
67456;SDS011;54319;52.038;4.640;2022-07-11T16:24:14;4.38;;;3.03;;
67456;SDS011;54319;52.038;4.640;2022-07-11T16:29:07;2.05;;;1.30;;
67456;SDS011;54319;52.038;4.640;2022-07-11T16:31:35;2.80;;;2.50;;
67456;SDS011;54319;52.038;4.640;2022-07-11T16:34:03;1.17;;;1.05;;
67456;SDS011;54319;52.038;4.640;2022-07-11T16:36:31;2.20;;;1.33;;